Modern Express — H9DG — position and weather

sailwx.info

Track history (hours):
 
Tides and Currents Weather Stations Pressure Air Temp Water Temp Dewpoint Dewpoint Depression Visibility Wind Speed Wind Dir Waves Ship Positions

Modern Express

Last reported at 2015-Feb-25 11:34 UTC. Time now 2015-Feb-28 00:45 UTC.
Position N 08°25' W 014°28'.

Length 164 m; beam 28 m.

Type: Cargo ship. MMSI: 356187000.

Date/timePositionNaut miles runAvg speedWind from/ knotsBaromVisibWave heightAir tempDewpointWater temp
2015-Feb-25 11:34N 08°25' W 014°28'1615.8
2015-Feb-25 10:34N 08°36' W 014°39'3215.7
2015-Feb-25 08:33N 08°58' W 015°02'3516.0
2015-Feb-25 06:23N 09°23' W 015°27'  
2015-Feb-16 13:06N 36°57' W 010°45'915.8
2015-Feb-16 12:30N 37°06' W 010°45'1715.5
2015-Feb-16 11:24N 37°23' W 010°44'1315.5
2015-Feb-16 10:33N 37°37' W 010°43'6315.8
2015-Feb-16 06:33N 38°40' W 010°37'1716.3
2015-Feb-16 05:31N 38°57' W 010°35'1616.6
2015-Feb-16 04:33N 39°12' W 010°34'1716.2
2015-Feb-16 03:31N 39°29' W 010°33'  
Track history (hours):
 
Tides and Currents Weather Stations Pressure Air Temp Water Temp Dewpoint Dewpoint Depression Visibility Wind Speed Wind Dir Waves Ship Positions

Modern Express

Last reported at 2015-Feb-25 11:34 UTC. Time now 2015-Feb-28 00:45 UTC.
Position N 08°25' W 014°28'.

Length 164 m; beam 28 m.

Type: Cargo ship. MMSI: 356187000.

Date/timePositionNaut miles runAvg speedWind from/ knotsBaromVisibWave heightAir tempDewpointWater temp
2015-Feb-25 11:34N 08°25' W 014°28'1615.8
2015-Feb-25 10:34N 08°36' W 014°39'3215.7
2015-Feb-25 08:33N 08°58' W 015°02'3516.0
2015-Feb-25 06:23N 09°23' W 015°27'  
2015-Feb-16 13:06N 36°57' W 010°45'915.8
2015-Feb-16 12:30N 37°06' W 010°45'1715.5
2015-Feb-16 11:24N 37°23' W 010°44'1315.5
2015-Feb-16 10:33N 37°37' W 010°43'6315.8
2015-Feb-16 06:33N 38°40' W 010°37'1716.3
2015-Feb-16 05:31N 38°57' W 010°35'1616.6
2015-Feb-16 04:33N 39°12' W 010°34'1716.2
2015-Feb-16 03:31N 39°29' W 010°33'  

Dump ship's entire track history